createdAt,value
2017-08-02T00:00:32.876Z,31.30
2017-08-02T00:03:01.408Z,29.40
2017-08-02T00:05:29.955Z,32.27
2017-08-02T00:07:58.256Z,28.83
2017-08-02T00:10:26.594Z,27.93
2017-08-02T00:12:54.960Z,31.13
2017-08-02T00:15:23.316Z,32.03
2017-08-02T00:17:52.583Z,31.70
2017-08-02T00:20:20.889Z,31.80
2017-08-02T00:22:50.002Z,31.73
2017-08-02T00:25:19.072Z,30.60
2017-08-02T00:27:47.421Z,31.23
2017-08-02T00:30:15.725Z,32.70
2017-08-02T00:32:44.079Z,31.37
2017-08-02T00:35:12.464Z,32.80
2017-08-02T00:37:41.531Z,31.97
2017-08-02T00:40:09.845Z,35.17
2017-08-02T00:42:38.283Z,37.60
2017-08-02T00:45:06.661Z,35.47
2017-08-02T00:47:35.196Z,34.70
2017-08-02T00:50:03.570Z,32.27
2017-08-02T00:52:31.888Z,29.10
2017-08-02T00:55:00.196Z,31.97
2017-08-02T00:57:28.540Z,29.60
2017-08-02T00:59:56.837Z,30.30
2017-08-02T01:02:25.217Z,29.17
2017-08-02T01:04:53.529Z,27.60
2017-08-02T01:07:21.875Z,27.93
2017-08-02T01:09:50.232Z,27.77
2017-08-02T01:12:18.532Z,29.57
2017-08-02T01:14:47.648Z,29.50
2017-08-02T01:17:16.751Z,29.80
2017-08-02T01:19:45.879Z,27.53
2017-08-02T01:22:14.183Z,24.47
2017-08-02T01:24:42.536Z,28.27
2017-08-02T01:27:11.921Z,28.83
2017-08-02T01:29:40.255Z,27.30
2017-08-02T01:32:08.779Z,27.33
2017-08-02T01:34:37.189Z,28.90
2017-08-02T01:37:05.604Z,29.87
2017-08-02T01:39:34.066Z,32.10
2017-08-02T01:42:02.381Z,33.77
2017-08-02T01:44:30.792Z,34.87
2017-08-02T01:46:59.865Z,33.80
2017-08-02T01:49:29.763Z,35.13
2017-08-02T01:51:58.132Z,36.00
2017-08-02T01:54:26.466Z,40.00
2017-08-02T01:56:55.715Z,40.47
2017-08-02T01:59:24.863Z,47.60
2017-08-02T02:01:53.219Z,47.00
2017-08-02T02:04:22.335Z,50.10
2017-08-02T02:06:50.643Z,54.10
2017-08-02T02:09:19.000Z,49.40
2017-08-02T02:11:48.069Z,47.10
2017-08-02T02:14:16.426Z,51.70
2017-08-02T02:16:44.732Z,51.73
2017-08-02T02:19:13.027Z,53.00
2017-08-02T02:21:41.576Z,51.43
2017-08-02T02:24:09.902Z,50.23
2017-08-02T02:26:38.724Z,47.33
2017-08-02T02:29:07.454Z,48.07
2017-08-02T02:31:36.604Z,47.03
2017-08-02T02:34:05.001Z,48.57
2017-08-02T02:36:33.310Z,49.30
2017-08-02T02:39:01.615Z,47.90
2017-08-02T02:41:29.959Z,52.30
2017-08-02T02:43:58.269Z,52.43
2017-08-02T02:46:26.581Z,53.50
2017-08-02T02:48:54.952Z,53.50
2017-08-02T02:51:23.256Z,53.23
2017-08-02T02:53:51.847Z,55.20
2017-08-02T02:56:20.233Z,53.30
2017-08-02T02:58:49.312Z,56.03
2017-08-02T03:01:17.719Z,51.33
2017-08-02T03:03:47.637Z,54.13
2017-08-02T03:06:16.897Z,53.33
2017-08-02T03:08:45.222Z,56.80
2017-08-02T03:11:13.626Z,56.53
2017-08-02T03:13:41.972Z,56.47
2017-08-02T03:16:10.277Z,58.77
2017-08-02T03:18:38.693Z,56.60
2017-08-02T03:21:07.219Z,58.17
2017-08-02T03:23:37.452Z,59.43
2017-08-02T03:26:05.971Z,58.47
2017-08-02T03:28:34.319Z,63.30
2017-08-02T03:31:03.389Z,69.03
2017-08-02T03:33:33.044Z,67.70
2017-08-02T03:36:02.157Z,67.77
2017-08-02T03:38:31.228Z,69.40
2017-08-02T03:40:59.579Z,68.00
2017-08-02T03:43:27.888Z,62.50
2017-08-02T03:45:56.239Z,65.70
2017-08-02T03:48:25.388Z,64.30
2017-08-02T03:50:53.732Z,61.67
2017-08-02T03:53:22.112Z,63.33
2017-08-02T03:55:51.223Z,64.10
2017-08-02T03:58:20.297Z,63.97
2017-08-02T04:00:48.916Z,67.37
2017-08-02T04:03:17.224Z,64.27
2017-08-02T04:05:45.575Z,68.73
2017-08-02T04:08:14.260Z,60.93
2017-08-02T04:10:42.668Z,60.63
2017-08-02T04:13:11.294Z,62.00
2017-08-02T04:15:40.524Z,61.90
2017-08-02T04:18:09.002Z,66.47
2017-08-02T04:20:38.482Z,66.47
2017-08-02T04:23:06.900Z,67.80
2017-08-02T04:25:35.279Z,65.60
2017-08-02T04:28:03.589Z,61.23
2017-08-02T04:30:32.703Z,60.67
2017-08-02T04:33:01.100Z,63.90
2017-08-02T04:35:29.448Z,62.80
2017-08-02T04:37:58.143Z,56.43
2017-08-02T04:40:26.492Z,57.87
2017-08-02T04:43:00.339Z,53.83
2017-08-02T04:45:29.176Z,45.80
2017-08-02T04:47:58.488Z,45.23
2017-08-02T04:50:26.800Z,39.73
2017-08-02T04:52:55.135Z,37.43
2017-08-02T04:55:23.556Z,36.50
2017-08-02T04:57:51.899Z,32.47
2017-08-02T05:00:21.183Z,31.67
2017-08-02T05:02:49.483Z,30.87
2017-08-02T05:05:17.843Z,29.27
2017-08-02T05:07:46.143Z,26.03
2017-08-02T05:10:15.227Z,26.40
2017-08-02T05:12:43.919Z,25.67
2017-08-02T05:15:12.449Z,24.27
2017-08-02T05:17:41.636Z,25.27
2017-08-02T05:20:09.976Z,23.67
2017-08-02T05:22:40.309Z,23.07
2017-08-02T05:25:09.192Z,20.30
2017-08-02T05:27:38.825Z,20.70
2017-08-02T05:30:07.231Z,19.90
2017-08-02T05:32:35.544Z,19.00
2017-08-02T05:35:03.884Z,18.13
2017-08-02T05:37:32.370Z,17.93
2017-08-02T05:40:01.948Z,17.03
2017-08-02T05:42:30.452Z,18.10
2017-08-02T05:44:58.844Z,14.70
2017-08-02T05:47:27.200Z,14.07
2017-08-02T05:49:55.595Z,15.57
2017-08-02T05:52:23.935Z,11.27
2017-08-02T05:54:52.239Z,12.63
2017-08-02T05:57:20.588Z,13.17
2017-08-02T05:59:48.880Z,13.30
2017-08-02T06:02:17.225Z,9.43
2017-08-02T06:04:45.713Z,6.17
2017-08-02T06:07:14.101Z,4.73
2017-08-02T06:09:42.588Z,5.50
2017-08-02T06:12:10.933Z,4.90
2017-08-02T06:14:39.343Z,4.97
2017-08-02T06:17:08.645Z,3.90
2017-08-02T06:19:38.203Z,5.33
2017-08-02T06:22:06.501Z,4.27
2017-08-02T06:24:34.924Z,5.27
2017-08-02T06:27:03.288Z,5.23
2017-08-02T06:29:31.639Z,4.67
2017-08-02T06:32:00.015Z,3.83
2017-08-02T06:34:28.601Z,3.83
2017-08-02T06:36:56.940Z,4.10
2017-08-02T06:39:25.271Z,4.00
2017-08-02T06:41:53.560Z,3.97
2017-08-02T06:44:21.847Z,5.80
2017-08-02T06:46:50.184Z,3.10
2017-08-02T06:49:18.509Z,2.80
2017-08-02T06:51:46.861Z,2.90
2017-08-02T06:54:15.323Z,2.50
2017-08-02T06:56:43.660Z,1.77
2017-08-02T06:59:12.029Z,2.50
2017-08-02T07:01:40.672Z,2.10
2017-08-02T07:04:09.327Z,2.70
2017-08-02T07:06:37.781Z,2.23
2017-08-02T07:09:06.119Z,2.27
2017-08-02T07:11:34.503Z,2.20
2017-08-02T07:14:03.540Z,2.43
2017-08-02T07:16:31.836Z,2.17
2017-08-02T07:19:00.284Z,2.07
2017-08-02T07:21:28.684Z,2.00
2017-08-02T07:23:57.933Z,1.90
2017-08-02T07:26:26.260Z,2.30
2017-08-02T07:28:54.547Z,2.03
2017-08-02T07:31:22.843Z,2.40
2017-08-02T07:33:51.175Z,1.93
2017-08-02T07:36:19.500Z,2.37
2017-08-02T07:38:47.857Z,2.00
2017-08-02T07:41:16.208Z,2.73
2017-08-02T07:43:44.569Z,2.93
2017-08-02T07:46:13.015Z,2.13
2017-08-02T07:48:41.634Z,2.17
2017-08-02T07:51:10.045Z,2.43
2017-08-02T07:53:38.430Z,2.27
2017-08-02T07:56:06.878Z,2.70
2017-08-02T07:58:36.171Z,2.20
2017-08-02T08:01:04.497Z,1.90
2017-08-02T08:03:32.841Z,2.00
2017-08-02T08:06:01.172Z,2.30
2017-08-02T08:08:29.486Z,2.30
2017-08-02T08:10:57.855Z,2.40
2017-08-02T08:13:26.276Z,2.60
2017-08-02T08:15:54.604Z,1.80
2017-08-02T08:18:22.892Z,2.40
2017-08-02T08:20:51.215Z,2.90
2017-08-02T08:23:19.555Z,3.40
2017-08-02T08:25:47.836Z,2.70
2017-08-02T08:28:16.264Z,2.87
2017-08-02T08:30:44.582Z,2.47
2017-08-02T08:33:12.881Z,3.27
2017-08-02T08:35:41.262Z,2.97
2017-08-02T08:38:09.702Z,3.00
2017-08-02T08:40:38.218Z,3.30
2017-08-02T08:43:06.597Z,3.57
2017-08-02T08:45:34.971Z,3.10
2017-08-02T08:48:03.457Z,2.60
2017-08-02T08:50:31.755Z,2.27
2017-08-02T08:53:00.140Z,2.60
2017-08-02T08:55:28.542Z,2.00
2017-08-02T08:57:56.919Z,2.80
2017-08-02T09:00:25.219Z,2.83
2017-08-02T09:02:53.652Z,2.97
2017-08-02T09:05:21.940Z,2.93
2017-08-02T09:07:50.243Z,2.37
2017-08-02T09:10:18.569Z,2.80
2017-08-02T09:12:46.863Z,2.57
2017-08-02T09:15:15.300Z,2.70
2017-08-02T09:17:43.636Z,2.80
2017-08-02T09:20:12.047Z,2.87
2017-08-02T09:22:40.536Z,2.63
2017-08-02T09:25:08.983Z,2.90
2017-08-02T09:27:38.575Z,2.07
2017-08-02T09:30:06.999Z,2.37
2017-08-02T09:32:35.340Z,2.80
2017-08-02T09:35:03.781Z,2.30
2017-08-02T09:37:32.081Z,2.50
2017-08-02T09:40:00.422Z,2.17
2017-08-02T09:42:28.891Z,2.43
2017-08-02T09:44:57.188Z,3.00
2017-08-02T09:47:25.491Z,3.10
2017-08-02T09:49:53.827Z,2.60
2017-08-02T09:52:22.172Z,2.70
2017-08-02T09:54:50.496Z,2.47
2017-08-02T09:57:18.792Z,2.87
2017-08-02T09:59:47.140Z,2.40
2017-08-02T10:02:15.483Z,1.97
2017-08-02T10:04:43.904Z,2.47
2017-08-02T10:07:12.345Z,2.70
2017-08-02T10:09:40.698Z,2.40
2017-08-02T10:12:09.133Z,3.17
2017-08-02T10:14:37.523Z,1.87
2017-08-02T10:17:05.891Z,2.83
2017-08-02T10:19:34.797Z,2.40
2017-08-02T10:22:03.124Z,2.37
2017-08-02T10:24:31.501Z,2.40
2017-08-02T10:26:59.864Z,2.30
2017-08-02T10:29:28.256Z,2.37
2017-08-02T10:31:56.543Z,1.90
2017-08-02T10:34:24.884Z,1.60
2017-08-02T10:36:53.172Z,2.70
2017-08-02T10:39:21.507Z,1.80
2017-08-02T10:41:49.797Z,2.60
2017-08-02T10:44:18.696Z,2.33
2017-08-02T10:46:47.041Z,2.50
2017-08-02T10:49:15.724Z,2.27
2017-08-02T10:51:44.273Z,1.60
2017-08-02T10:54:12.689Z,2.50
2017-08-02T10:56:41.065Z,1.83
2017-08-02T10:59:12.256Z,2.10
2017-08-02T11:01:40.639Z,2.40
2017-08-02T11:04:09.016Z,2.33
2017-08-02T11:06:37.440Z,2.20
2017-08-02T11:09:05.782Z,1.83
2017-08-02T11:11:35.004Z,2.00
2017-08-02T11:14:03.595Z,1.93
2017-08-02T11:16:31.886Z,1.33
2017-08-02T11:19:00.357Z,1.57
2017-08-02T11:21:28.692Z,1.90
2017-08-02T11:23:56.989Z,1.80
2017-08-02T11:26:25.353Z,1.90
2017-08-02T11:28:53.640Z,1.50
2017-08-02T11:31:22.118Z,2.20
2017-08-02T11:33:50.399Z,1.70
2017-08-02T11:36:18.691Z,2.03
2017-08-02T11:38:47.029Z,1.90
2017-08-02T11:41:15.368Z,2.70
2017-08-02T11:43:44.127Z,2.23
2017-08-02T11:46:12.703Z,2.53
2017-08-02T11:48:41.055Z,1.73
2017-08-02T11:51:09.508Z,2.00
2017-08-02T11:53:38.687Z,1.77
2017-08-02T11:56:07.045Z,2.00
2017-08-02T11:58:35.398Z,1.97
2017-08-02T12:01:05.007Z,2.10
2017-08-02T12:03:33.377Z,2.10
2017-08-02T12:06:03.088Z,1.80
2017-08-02T12:08:31.439Z,1.63
2017-08-02T12:10:59.796Z,2.10
2017-08-02T12:13:28.121Z,2.30
2017-08-02T12:15:57.332Z,2.23
2017-08-02T12:18:26.465Z,2.40
2017-08-02T12:20:55.564Z,2.27
2017-08-02T12:23:24.671Z,2.00
2017-08-02T12:25:53.096Z,2.53
2017-08-02T12:28:21.387Z,1.70
2017-08-02T12:30:49.679Z,2.27
2017-08-02T12:33:18.032Z,2.43
2017-08-02T12:35:47.083Z,2.40
2017-08-02T12:38:15.440Z,1.90
2017-08-02T12:40:44.611Z,1.93
2017-08-02T12:43:14.123Z,2.10
2017-08-02T12:45:42.564Z,2.40
2017-08-02T12:48:10.938Z,2.10
2017-08-02T12:50:39.593Z,1.93
2017-08-02T12:53:08.942Z,1.80
2017-08-02T12:55:37.393Z,1.97
2017-08-02T12:58:06.577Z,2.00
2017-08-02T13:00:34.952Z,1.80
2017-08-02T13:03:05.289Z,2.93
2017-08-02T13:05:33.664Z,2.00
2017-08-02T13:08:02.960Z,2.37
2017-08-02T13:10:31.260Z,2.27
2017-08-02T13:12:59.568Z,1.67
2017-08-02T13:15:28.725Z,2.10
2017-08-02T13:17:57.012Z,2.07
2017-08-02T13:20:25.351Z,1.60
2017-08-02T13:22:54.565Z,1.80
2017-08-02T13:25:23.659Z,2.30
2017-08-02T13:27:51.995Z,1.97
2017-08-02T13:30:20.332Z,2.20
2017-08-02T13:32:48.672Z,2.27
2017-08-02T13:35:16.963Z,2.23
2017-08-02T13:37:45.305Z,2.27
2017-08-02T13:40:15.571Z,2.10
2017-08-02T13:42:43.917Z,2.73
2017-08-02T13:45:12.219Z,2.00
2017-08-02T13:47:40.559Z,2.00
2017-08-02T13:50:08.918Z,3.10
2017-08-02T13:52:37.335Z,2.57
2017-08-02T13:55:05.619Z,3.13
2017-08-02T13:57:33.999Z,1.50
2017-08-02T14:00:02.328Z,2.20
2017-08-02T14:02:30.616Z,2.30
2017-08-02T14:04:58.964Z,2.33
2017-08-02T14:07:27.317Z,2.20
2017-08-02T14:09:55.629Z,2.60
2017-08-02T14:12:23.964Z,2.60
2017-08-02T14:14:52.316Z,2.10
2017-08-02T14:17:20.608Z,3.20
2017-08-02T14:19:49.036Z,2.30
2017-08-02T14:22:17.436Z,2.30
2017-08-02T14:24:47.316Z,2.57
2017-08-02T14:27:15.753Z,2.30
2017-08-02T14:29:44.059Z,2.60
2017-08-02T14:32:12.377Z,2.80
2017-08-02T14:34:40.740Z,2.30
2017-08-02T14:37:09.211Z,2.30
2017-08-02T14:39:37.532Z,2.27
2017-08-02T14:42:05.887Z,2.50
2017-08-02T14:44:34.349Z,2.87
2017-08-02T14:47:02.652Z,2.80
2017-08-02T14:49:30.992Z,2.50
2017-08-02T14:51:59.275Z,3.03
2017-08-02T14:54:27.733Z,2.00
2017-08-02T14:56:56.024Z,2.37
2017-08-02T14:59:24.444Z,2.37
2017-08-02T15:01:52.775Z,2.20
2017-08-02T15:04:21.119Z,3.10
2017-08-02T15:06:49.408Z,2.60
2017-08-02T15:09:17.740Z,3.90
2017-08-02T15:11:46.086Z,2.80
2017-08-02T15:14:14.381Z,2.50
2017-08-02T15:16:42.721Z,2.30
2017-08-02T15:19:11.036Z,2.47
2017-08-02T15:21:39.334Z,2.53
2017-08-02T15:24:08.394Z,2.67
2017-08-02T15:26:39.064Z,2.90
2017-08-02T15:29:07.387Z,2.47
2017-08-02T15:31:35.752Z,2.40
2017-08-02T15:34:05.056Z,2.77
2017-08-02T15:36:33.397Z,2.77
2017-08-02T15:39:01.684Z,3.03
2017-08-02T15:41:35.144Z,2.87
2017-08-02T15:44:03.583Z,2.80
2017-08-02T15:46:31.872Z,2.47
2017-08-02T15:49:00.276Z,2.50
2017-08-02T15:51:28.624Z,2.83
2017-08-02T15:53:57.297Z,2.37
2017-08-02T15:56:26.902Z,2.83
2017-08-02T15:58:55.279Z,3.57
2017-08-02T16:01:23.713Z,2.67
2017-08-02T16:03:52.052Z,2.97
2017-08-02T16:06:20.339Z,2.80
2017-08-02T16:08:50.883Z,2.70
2017-08-02T16:11:19.224Z,2.80
2017-08-02T16:13:47.546Z,2.50
2017-08-02T16:16:15.834Z,2.83
2017-08-02T16:18:44.176Z,2.63
2017-08-02T16:21:12.471Z,2.73
2017-08-02T16:23:40.760Z,2.50
2017-08-02T16:26:09.160Z,2.73
2017-08-02T16:28:37.500Z,2.73
2017-08-02T16:31:05.844Z,2.70
2017-08-02T16:33:34.136Z,2.70
2017-08-02T16:36:02.469Z,3.17
2017-08-02T16:38:30.758Z,2.60
2017-08-02T16:40:59.228Z,2.50
2017-08-02T16:43:27.576Z,2.80
2017-08-02T16:45:55.899Z,2.77
2017-08-02T16:48:25.185Z,2.83
2017-08-02T16:50:54.599Z,3.00
2017-08-02T16:53:22.879Z,2.57
2017-08-02T16:55:51.224Z,3.50
2017-08-02T16:58:24.485Z,2.70
2017-08-02T17:00:52.766Z,3.07
2017-08-02T17:03:21.177Z,2.50
2017-08-02T17:05:49.524Z,3.27
2017-08-02T17:08:17.852Z,2.57
2017-08-02T17:10:46.144Z,4.03
2017-08-02T17:13:14.476Z,3.40
2017-08-02T17:15:42.768Z,3.23
2017-08-02T17:18:11.113Z,2.90
2017-08-02T17:20:39.488Z,2.93
2017-08-02T17:23:07.824Z,3.23
2017-08-02T17:25:36.501Z,3.83
2017-08-02T17:28:04.787Z,3.10
2017-08-02T17:30:33.090Z,3.60
2017-08-02T17:33:01.415Z,3.40
2017-08-02T17:35:29.919Z,3.10
2017-08-02T17:37:58.321Z,3.10
2017-08-02T17:40:26.914Z,3.60
2017-08-02T17:42:56.189Z,2.57
2017-08-02T17:45:24.489Z,3.33
2017-08-02T17:47:53.664Z,2.80
2017-08-02T17:50:22.012Z,3.03
2017-08-02T17:52:50.336Z,3.77
2017-08-02T17:55:18.675Z,3.57
2017-08-02T17:57:46.964Z,3.70
2017-08-02T18:00:18.386Z,2.97
2017-08-02T18:02:46.679Z,3.30
2017-08-02T18:05:14.991Z,3.33
2017-08-02T18:07:43.323Z,3.10
2017-08-02T18:10:11.757Z,2.80
2017-08-02T18:12:40.227Z,3.40
2017-08-02T18:15:08.559Z,3.23
2017-08-02T18:17:36.944Z,3.73
2017-08-02T18:20:05.296Z,3.63
2017-08-02T18:22:33.587Z,3.20
2017-08-02T18:25:01.959Z,4.00
2017-08-02T18:27:30.259Z,3.37
2017-08-02T18:29:58.733Z,3.80
2017-08-02T18:32:27.038Z,3.70
2017-08-02T18:34:55.337Z,4.87
2017-08-02T18:37:23.677Z,3.73
2017-08-02T18:39:52.026Z,4.10
2017-08-02T18:42:20.312Z,3.80
2017-08-02T18:44:48.595Z,3.77
2017-08-02T18:47:16.927Z,3.97
2017-08-02T18:49:45.265Z,4.00
2017-08-02T18:52:13.556Z,4.80
2017-08-02T18:54:42.284Z,4.80
2017-08-02T18:57:10.596Z,4.80
2017-08-02T18:59:38.935Z,4.30
2017-08-02T19:02:07.871Z,4.13
2017-08-02T19:04:36.167Z,4.13
2017-08-02T19:07:04.504Z,4.30
2017-08-02T19:09:32.792Z,4.10
2017-08-02T19:12:01.128Z,4.60
2017-08-02T19:14:29.869Z,3.40
2017-08-02T19:16:58.985Z,4.87
2017-08-02T19:19:27.321Z,4.07
2017-08-02T19:21:55.619Z,4.67
2017-08-02T19:24:23.990Z,4.40
2017-08-02T19:26:52.285Z,4.60
2017-08-02T19:29:20.573Z,4.23
2017-08-02T19:31:48.903Z,4.73
2017-08-02T19:34:18.025Z,5.70
2017-08-02T19:36:47.140Z,3.90
2017-08-02T19:39:15.432Z,4.40
2017-08-02T19:41:43.769Z,5.03
2017-08-02T19:44:12.208Z,4.40
2017-08-02T19:46:40.932Z,4.50
2017-08-02T19:49:09.232Z,4.60
2017-08-02T19:51:37.576Z,4.53
2017-08-02T19:54:06.864Z,4.77
2017-08-02T19:56:35.160Z,4.77
2017-08-02T19:59:03.459Z,4.30
2017-08-02T20:01:32.559Z,4.47
2017-08-02T20:04:00.848Z,4.50
2017-08-02T20:06:29.994Z,5.10
2017-08-02T20:08:58.306Z,4.90
2017-08-02T20:11:26.656Z,4.77
2017-08-02T20:13:54.988Z,4.37
2017-08-02T20:16:23.325Z,5.57
2017-08-02T20:18:51.636Z,6.00
2017-08-02T20:21:19.972Z,6.97
2017-08-02T20:23:49.192Z,5.53
2017-08-02T20:26:17.496Z,5.50
2017-08-02T20:28:45.828Z,6.20
2017-08-02T20:31:14.117Z,5.17
2017-08-02T20:33:42.476Z,5.63
2017-08-02T20:36:10.766Z,5.63
2017-08-02T20:38:39.124Z,5.87
2017-08-02T20:41:07.420Z,6.20
2017-08-02T20:43:35.713Z,6.10
2017-08-02T20:46:04.058Z,5.23
2017-08-02T20:48:32.361Z,6.10
2017-08-02T20:51:00.693Z,5.27
2017-08-02T20:53:28.979Z,6.10
2017-08-02T20:55:57.319Z,6.87
2017-08-02T20:58:25.632Z,5.83
2017-08-02T21:00:54.059Z,7.10
2017-08-02T21:03:22.437Z,6.93
2017-08-02T21:05:50.863Z,6.67
2017-08-02T21:08:19.265Z,5.90
2017-08-02T21:10:47.599Z,5.50
2017-08-02T21:13:16.028Z,5.40
2017-08-02T21:15:44.333Z,6.33
2017-08-02T21:18:12.632Z,5.53
2017-08-02T21:20:40.997Z,5.87
2017-08-02T21:23:09.296Z,6.43
2017-08-02T21:25:37.647Z,6.67
2017-08-02T21:28:05.940Z,7.23
2017-08-02T21:30:34.311Z,6.80
2017-08-02T21:33:02.607Z,6.93
2017-08-02T21:35:30.895Z,6.83
2017-08-02T21:37:59.335Z,8.10
2017-08-02T21:40:27.757Z,8.17
2017-08-02T21:42:56.079Z,6.93
2017-08-02T21:45:38.026Z,8.47
2017-08-02T21:48:06.632Z,7.27
2017-08-02T21:50:34.996Z,8.90
2017-08-02T21:53:04.140Z,8.37
2017-08-02T21:55:32.438Z,9.50
2017-08-02T21:58:00.817Z,9.70
2017-08-02T22:00:29.871Z,9.07
2017-08-02T22:02:58.164Z,8.60
2017-08-02T22:05:26.508Z,7.90
2017-08-02T22:07:54.838Z,8.53
2017-08-02T22:10:23.173Z,8.50
2017-08-02T22:12:51.484Z,9.00
2017-08-02T22:15:19.828Z,10.03
2017-08-02T22:17:48.176Z,14.37
2017-08-02T22:20:16.481Z,9.30
2017-08-02T22:22:44.824Z,10.50
2017-08-02T22:25:13.174Z,11.93
2017-08-02T22:27:41.619Z,11.90
2017-08-02T22:30:09.929Z,11.27
2017-08-02T22:32:38.249Z,9.87
2017-08-02T22:35:06.624Z,10.43
2017-08-02T22:37:34.919Z,9.93
2017-08-02T22:40:03.220Z,9.77
2017-08-02T22:42:35.307Z,10.43
2017-08-02T22:45:03.657Z,10.37
2017-08-02T22:47:32.007Z,10.27
2017-08-02T22:50:00.303Z,8.60
2017-08-02T22:52:28.595Z,9.47
2017-08-02T22:54:56.938Z,9.07
2017-08-02T22:57:26.044Z,9.17
2017-08-02T22:59:55.160Z,8.77
2017-08-02T23:02:23.519Z,7.80
2017-08-02T23:04:51.824Z,7.40
2017-08-02T23:07:20.825Z,7.63
2017-08-02T23:09:49.124Z,7.70
2017-08-02T23:12:18.212Z,7.57
2017-08-02T23:14:46.512Z,8.80
2017-08-02T23:17:14.851Z,8.63
2017-08-02T23:19:43.152Z,8.50
2017-08-02T23:22:11.688Z,7.73
2017-08-02T23:24:40.756Z,7.33
2017-08-02T23:27:09.065Z,7.43
2017-08-02T23:29:37.408Z,8.97
2017-08-02T23:32:05.749Z,8.10
2017-08-02T23:34:34.084Z,9.97
2017-08-02T23:37:02.381Z,7.30
2017-08-02T23:39:30.719Z,7.73
2017-08-02T23:41:59.024Z,8.23
2017-08-02T23:44:28.124Z,8.40
2017-08-02T23:46:56.430Z,9.47
2017-08-02T23:49:25.505Z,7.60
2017-08-02T23:51:53.846Z,8.80
2017-08-02T23:54:22.143Z,8.93
2017-08-02T23:56:50.488Z,8.70
2017-08-02T23:59:18.825Z,10.10
